Flight Track Log - Related Links

Times and Time Zones

All times are in EDT time to prevent confusion due to time zone crossing. See the N75ZM flight status page for this flight to view local times or setup timezone preferences in your user account.

Time Position Orientation Groundspeed Altitude Reporting Facility
EDT Latitude Longitude Course Direction KTS MPH feet Rate Location/Type
Sun 03:15:44 PM 33.8500 -84.2833 96° East 120 138 2,200  Level Atlanta TRACON
Sun 03:16:38 PM 33.8667 -84.2500 59° Northeast 120 138 3,300 1,053 Climbing Atlanta TRACON
Sun 03:17:38 PM 33.8667 -84.2000 90° East 129 148 4,200 789 Climbing Atlanta TRACON
Sun 03:18:32 PM 33.8667 -84.1667 90° East 128 147 4,800 684 Climbing Atlanta TRACON
Sun 03:19:32 PM 33.8667 -84.1167 90° East 146 168 5,500 700 Climbing Atlanta TRACON
Sun 03:20:32 PM 33.8500 -84.0833 121° Southeast 143 165 6,200 700 Climbing Atlanta TRACON
Sun 03:21:00 PM 34.0062 -83.9695 96° East  Level Estimated
Sun 03:21:32 PM 33.8500 -84.0333 90° East 140 161 6,900  Level Atlanta TRACON
Sun 03:22:32 PM 33.8500 -83.9833 90° East 151 174 7,400 500 Climbing Atlanta TRACON
Sun 03:23:32 PM 33.8500 -83.9333 90° East 160 184 7,900 500 Climbing Atlanta TRACON
Sun 03:24:32 PM 33.8500 -83.8667 90° East 166 191 8,400 526 Climbing Atlanta TRACON
Sun 03:25:26 PM 33.8333 -83.8167 112° Southeast 166 191 8,900 368 Climbing Atlanta TRACON
Sun 03:26:26 PM 33.8333 -83.7667 90° East 167 192 9,100 100 Climbing Atlanta TRACON
Sun 03:27:26 PM 33.8333 -83.7000 90° East 183 211 9,100  Level Atlanta TRACON
Sun 03:28:26 PM 33.8333 -83.6500 90° East 178 205 9,100  Level Atlanta TRACON
Sun 03:29:26 PM 33.8167 -83.5833 107° East 178 205 9,100  Level Atlanta TRACON
Sun 03:30:26 PM 33.8167 -83.5333 90° East 181 208 9,100  Level Atlanta TRACON
Sun 03:31:26 PM 33.8167 -83.4667 90° East 180 207 9,100 50 Level Atlanta TRACON
Sun 03:32:26 PM 33.8167 -83.4167 90° East 185 213 9,200  Climbing Atlanta TRACON
Sun 03:33:26 PM 33.8000 -83.3500 107° East 182 209 9,100 -50 Descending Atlanta TRACON
Sun 03:34:26 PM 33.8000 -83.2833 90° East 186 214 9,100  Level Atlanta TRACON
Sun 03:35:26 PM 33.8000 -83.2333 90° East 186 214 9,100  Level Atlanta TRACON
Sun 03:36:26 PM 33.7833 -83.1667 107° East 181 208 9,100 -46 Level Atlanta TRACON
Sun 03:38:00 PM 33.7834 -83.0708 90° East  Level FlightAware Approximate
Sun 03:45:00 PM 33.7531 -82.6434 97° East  Level FlightAware Approximate
Sun 03:46:00 PM 33.7467 -82.5827 97° East  Level FlightAware Approximate
Sun 03:47:00 PM 33.7402 -82.5220 97° East  Level FlightAware Approximate
Sun 03:48:00 PM 33.7337 -82.4613 97° East  Level FlightAware Approximate
Sun 03:49:00 PM 33.7272 -82.4007 97° East  Level FlightAware Approximate
Sun 03:50:00 PM 33.7207 -82.3400 97° East  Level FlightAware Approximate
Sun 03:51:00 PM 33.7141 -82.2794 97° East  Level FlightAware Approximate
Sun 03:52:00 PM 33.7075 -82.2188 97° East  Level FlightAware Approximate
Sun 03:53:00 PM 33.7009 -82.1581 97° East  Level FlightAware Approximate
Sun 03:54:00 PM 33.7068 -82.0977 81° East  Level FlightAware Approximate
Sun 03:55:00 PM 33.7147 -82.0373 81° East  Level FlightAware Approximate
Sun 03:56:00 PM 33.7226 -81.9769 81° East  Level FlightAware Approximate
Sun 03:57:00 PM 33.7304 -81.9164 81° East  Level FlightAware Approximate
Sun 03:58:00 PM 33.7382 -81.8560 81° East  Level FlightAware Approximate
Sun 03:59:00 PM 33.7460 -81.7955 81° East  Level FlightAware Approximate
Sun 04:00:00 PM 33.7537 -81.7350 81° East  Level FlightAware Approximate
Sun 04:01:00 PM 33.7614 -81.6746 81° East  Level FlightAware Approximate
Sun 04:02:00 PM 33.7695 -81.6141 80° East  Level FlightAware Approximate
Sun 04:03:00 PM 33.7782 -81.5538 80° East  Level FlightAware Approximate
Sun 04:04:00 PM 33.7869 -81.4936 80° East  Level FlightAware Approximate
Sun 04:05:00 PM 33.7956 -81.4332 80° East  Level FlightAware Approximate
Sun 04:06:00 PM 33.8042 -81.3729 80° East  Level FlightAware Approximate
Sun 04:07:00 PM 33.8129 -81.3126 80° East  Level FlightAware Approximate
Sun 04:08:00 PM 33.8214 -81.2522 80° East  Level FlightAware Approximate
Sun 04:09:00 PM 33.8300 -81.1919 80° East  Level FlightAware Approximate
Sun 04:10:00 PM 33.8385 -81.1315 80° East  Level FlightAware Approximate
Sun 04:11:00 PM 33.8470 -81.0711 80° East  Level FlightAware Approximate
Sun 04:12:00 PM 33.8745 -81.0232 42° Northeast  Level FlightAware Approximate
Sun 04:13:00 PM 33.9120 -80.9819 42° Northeast  Level FlightAware Approximate
Sun 04:14:00 PM 33.9496 -80.9405 42° Northeast  Level FlightAware Approximate
Sun 04:15:00 PM 33.9872 -80.8992 42° Northeast  Level FlightAware Approximate
Sun 04:16:00 PM 34.0249 -80.8580 41° Northeast  Level FlightAware Approximate
Sun 04:17:00 PM 34.0632 -80.8176 41° Northeast  Level FlightAware Approximate
Sun 04:18:00 PM 34.1015 -80.7772 41° Northeast  Level FlightAware Approximate
Sun 04:19:00 PM 34.1398 -80.7367 41° Northeast  Level FlightAware Approximate
Sun 04:20:00 PM 34.1780 -80.6962 41° Northeast  Level FlightAware Approximate
Sun 04:21:00 PM 34.2163 -80.6556 41° Northeast  Level FlightAware Approximate
Sun 04:22:00 PM 34.2545 -80.6150 41° Northeast  Level FlightAware Approximate
Sun 04:23:00 PM 34.2927 -80.5744 41° Northeast  Level FlightAware Approximate
Sun 04:24:00 PM 34.3310 -80.5339 41° Northeast  Level FlightAware Approximate
Sun 04:25:00 PM 34.3693 -80.4933 41° Northeast  Level FlightAware Approximate
Sun 04:26:00 PM 34.4076 -80.4527 41° Northeast  Level FlightAware Approximate
Sun 04:27:00 PM 34.4458 -80.4120 41° Northeast  Level FlightAware Approximate
Sun 04:28:00 PM 34.4841 -80.3714 41° Northeast  Level FlightAware Approximate
Sun 04:29:00 PM 34.5223 -80.3306 41° Northeast  Level FlightAware Approximate
Sun 04:30:00 PM 34.5605 -80.2899 41° Northeast  Level FlightAware Approximate
Sun 04:31:00 PM 34.5975 -80.2475 44° Northeast  Level FlightAware Approximate
Sun 04:32:00 PM 34.6342 -80.2047 44° Northeast  Level FlightAware Approximate
Sun 04:33:00 PM 34.6709 -80.1619 44° Northeast  Level FlightAware Approximate
Sun 04:34:00 PM 34.7050 -80.1239 43° Northeast  Level Estimated
Sun 04:35:00 PM 34.7390 -80.0859 43° Northeast  Level Estimated
Sun 04:36:00 PM 34.7730 -80.0479 43° Northeast  Level Estimated
Sun 04:37:00 PM 34.8070 -80.0098 43° Northeast  Level Estimated
Sun 04:38:00 PM 34.8410 -79.9717 43° Northeast  Level Estimated
Sun 04:39:00 PM 34.8750 -79.9335 43° Northeast  Level Estimated
Sun 04:40:00 PM 34.9090 -79.8954 43° Northeast  Level Estimated
Sun 04:41:00 PM 34.9429 -79.8572 43° Northeast  Level Estimated
Sun 04:42:00 PM 34.9776 -79.8181 43° Northeast  Level Estimated
Sun 04:43:00 PM 35.0123 -79.7790 43° Northeast  Level Estimated
Sun 04:44:00 PM 35.0469 -79.7399 43° Northeast  Level Estimated
Sun 04:45:00 PM 35.0816 -79.7007 43° Northeast  Level Estimated
Sun 04:46:00 PM 35.1162 -79.6615 43° Northeast  Level Estimated
Sun 04:47:00 PM 35.1508 -79.6223 43° Northeast  Level Estimated
Sun 04:48:00 PM 35.1854 -79.5831 43° Northeast  Level Estimated
Sun 04:49:00 PM 35.2200 -79.5438 43° Northeast  Level Estimated
Sun 04:49:51 PM 35.3078 -79.4989 43° Northeast 196 226 5,700  Level Washington Center
Sun 04:50:00 PM 35.2546 -79.5044 43° Northeast  Level Estimated
Sun 04:51:00 PM 35.2892 -79.4651 43° Northeast  Level Estimated
Sun 04:51:14 PM 35.3619 -79.4328 45° Northeast 199 229 5,100  Level Washington Center
Sun 04:52:00 PM 35.3237 -79.4257 43° Northeast  Level Estimated
Sun 04:52:09 PM 35.3969 -79.3886 46° Northeast 190 219 5,100  Level Washington Center
Sun 04:53:00 PM 35.3582 -79.3863 43° Northeast  Level Estimated
Sun 04:53:12 PM 35.4336 -79.3444 44° Northeast 182 209 5,100  Level Washington Center
Sun 04:54:00 PM 35.3928 -79.3468 43° Northeast  Level Estimated
Sun 04:54:07 PM 35.4661 -79.3053 44° Northeast 180 207 5,100  Level Washington Center
Sun 04:55:00 PM 35.4273 -79.3073 43° Northeast  Level Estimated
Sun 04:55:13 PM 35.5053 -79.2558 46° Northeast 181 208 5,100  Level Washington Center
Sun 04:56:13 PM 35.5400 -79.2142 44° Northeast 180 207 5,100  Level Washington Center
Sun 04:57:08 PM 35.5664 -79.1669 56° Northeast 179 206 5,100  Level Washington Center
Sun 04:58:15 PM 35.5956 -79.1042 60° Northeast 182 209 5,100 -234 Level Washington Center
Sun 04:59:16 PM 35.6219 -79.0492 59° Northeast 190 219 4,600 -496 Descending Washington Center
Sun 05:00:16 PM 35.6386 -78.9861 72° East 192 221 4,100 -261 Descending Washington Center
Sun 05:01:11 PM 35.6586 -78.9358 64° Northeast 183 211 4,100  Level Washington Center
Sun 05:02:11 PM 35.6747 -78.8803 70° East 178 205 4,100 -52 Level Washington Center
Sun 05:03:06 PM 35.6908 -78.8247 70° East 176 203 4,000 -295 Descending Washington Center
Sun 05:04:13 PM 35.7197 -78.7669 58° Northeast 176 203 3,500 -516 Descending Washington Center
Sun 05:05:14 PM 35.7542 -78.7247 45° Northeast 170 196 2,900 -541 Descending Washington Center
Sun 05:06:15 PM 35.7925 -78.6956 32° Northeast 165 190 2,400 -569 Descending Washington Center
Sun 05:07:10 PM 35.8250 -78.7250 324° Northwest 158 182 1,800 -643 Descending Washington Center
Sun 05:08:35 PM 35.8553 -78.7647 313° West 95 109 900 -635 Descending Washington Center
Sun 05:10:00 PM 35.8667 -78.7833 355° North  Level FlightAware Approximate
Sun 05:17:00 PM 35.8776 -78.7875 355° North  Level Estimated

Login

Don't have an account? Register now (free) for customized features, flight alerts, and more!